createdAt,value
2022-07-25T00:05:44.126Z,240.47
2022-07-25T00:15:48.083Z,253.50
2022-07-25T00:25:53.403Z,247.47
2022-07-25T00:35:57.129Z,250.40
2022-07-25T00:46:02.465Z,257.80
2022-07-25T00:56:08.295Z,248.23
2022-07-25T01:06:14.246Z,248.87
2022-07-25T01:16:18.767Z,244.77
2022-07-25T01:26:24.266Z,246.70
2022-07-25T01:36:28.381Z,256.07
2022-07-25T01:46:33.539Z,249.20
2022-07-25T01:56:37.571Z,248.93
2022-07-25T02:06:44.550Z,244.33
2022-07-25T02:16:48.567Z,244.57
2022-07-25T02:26:53.899Z,250.20
2022-07-25T02:36:57.722Z,241.53
2022-07-25T02:47:02.928Z,248.70
2022-07-25T02:57:06.828Z,249.20
2022-07-25T03:07:12.052Z,248.23
2022-07-25T03:17:15.874Z,254.10
2022-07-25T03:27:21.689Z,247.80
2022-07-25T03:37:25.461Z,251.97
2022-07-25T03:47:30.751Z,254.37
2022-07-25T03:57:34.439Z,250.27
2022-07-25T04:07:40.300Z,249.33
2022-07-25T04:17:44.179Z,245.40
2022-07-25T04:27:51.069Z,238.20
2022-07-25T04:37:55.198Z,252.53
2022-07-25T04:48:00.400Z,241.37
2022-07-25T04:58:04.484Z,246.83
2022-07-25T05:08:09.625Z,249.47
2022-07-25T05:18:13.507Z,254.50
2022-07-25T05:28:18.614Z,247.20
2022-07-25T05:38:22.736Z,248.37
2022-07-25T05:48:28.101Z,248.73
2022-07-25T05:58:32.738Z,257.37
2022-07-25T06:08:38.191Z,255.03
2022-07-25T06:18:41.962Z,254.23
2022-07-25T06:28:47.302Z,249.30
2022-07-25T06:38:52.222Z,254.00
2022-07-25T06:48:58.361Z,245.13
2022-07-25T06:59:02.470Z,248.47
2022-07-25T07:09:08.187Z,239.32
2022-07-25T07:19:12.305Z,244.57
2022-07-25T07:29:17.456Z,245.43
2022-07-25T07:39:21.006Z,244.38
2022-07-25T07:49:26.192Z,247.65
2022-07-25T07:59:30.064Z,243.90
2022-07-25T08:09:34.883Z,242.18
2022-07-25T08:19:38.567Z,240.32
2022-07-25T08:29:43.882Z,238.88
2022-07-25T08:39:47.422Z,243.95
2022-07-25T08:49:53.440Z,227.98
2022-07-25T09:00:00.127Z,226.93
2022-07-25T09:10:16.561Z,224.55
2022-07-25T09:20:21.422Z,223.18
2022-07-25T09:30:26.454Z,221.77
2022-07-25T09:40:30.416Z,225.38
2022-07-25T09:50:35.567Z,214.30
2022-07-25T10:00:42.669Z,211.90
2022-07-25T10:10:47.887Z,208.88
2022-07-25T10:20:54.824Z,212.38
2022-07-25T10:31:00.750Z,220.35
2022-07-25T10:41:09.019Z,218.07
2022-07-25T10:51:15.296Z,216.98
2022-07-25T11:01:24.789Z,221.18
2022-07-25T11:11:43.121Z,225.70
2022-07-25T11:21:48.599Z,217.48
2022-07-25T11:32:00.718Z,222.25
2022-07-25T11:42:07.756Z,217.52
2022-07-25T11:52:22.837Z,226.25
2022-07-25T12:02:29.062Z,224.52
2022-07-25T12:12:55.808Z,220.27
2022-07-25T12:23:03.308Z,206.95
2022-07-25T12:33:09.085Z,211.38
2022-07-25T12:43:12.801Z,203.82
2022-07-25T12:53:17.905Z,206.50
2022-07-25T13:03:21.452Z,211.75
2022-07-25T13:13:26.407Z,211.00
2022-07-25T13:23:29.885Z,219.27
2022-07-25T13:33:35.204Z,226.13
2022-07-25T13:43:38.862Z,223.02
2022-07-25T13:53:45.006Z,228.02
2022-07-25T14:03:49.123Z,228.27
2022-07-25T14:13:55.913Z,229.40
2022-07-25T14:23:59.521Z,231.48
2022-07-25T14:35:32.311Z,247.07
2022-07-25T14:45:37.937Z,226.88
2022-07-25T14:55:41.759Z,231.00
2022-07-25T15:05:47.026Z,231.73
2022-07-25T15:15:50.928Z,233.82
2022-07-25T15:54:40.397Z,290.38
2022-07-25T16:04:44.915Z,293.55
2022-07-25T16:14:50.738Z,253.48
2022-07-25T16:24:54.514Z,265.27
2022-07-25T16:34:59.509Z,257.98
2022-07-25T16:45:03.187Z,257.25
2022-07-25T16:55:09.010Z,262.30
2022-07-25T17:05:13.000Z,258.02
2022-07-25T17:15:18.343Z,261.80
2022-07-25T17:25:22.369Z,266.75
2022-07-25T17:35:27.655Z,254.57
2022-07-25T17:45:31.302Z,271.25
2022-07-25T17:55:39.054Z,266.45
2022-07-25T18:05:44.594Z,256.23
2022-07-25T18:15:51.054Z,261.70
2022-07-25T18:25:56.836Z,257.75
2022-07-25T18:36:07.231Z,275.27
2022-07-25T18:46:12.861Z,280.27
2022-07-25T18:56:19.799Z,267.80
2022-07-25T19:06:23.755Z,268.20
2022-07-25T19:16:29.208Z,369.75
2022-07-25T19:26:33.491Z,288.33
2022-07-25T19:36:38.527Z,265.80
2022-07-25T19:46:42.240Z,265.48
2022-07-25T19:56:47.276Z,269.77
2022-07-25T20:06:51.214Z,281.30
2022-07-25T20:16:57.896Z,276.02
2022-07-25T20:27:01.846Z,294.20
2022-07-25T20:37:06.877Z,302.55
2022-07-25T20:47:13.621Z,298.50
2022-07-25T20:57:19.157Z,290.90
2022-07-25T21:07:23.245Z,298.53
2022-07-25T21:17:28.516Z,293.80
2022-07-25T21:27:32.448Z,290.23
2022-07-25T21:37:37.543Z,292.83
2022-07-25T21:47:41.426Z,295.17
2022-07-25T21:57:46.183Z,261.50
2022-07-25T22:07:50.074Z,256.97
2022-07-25T22:17:54.865Z,251.40
2022-07-25T22:27:58.210Z,263.90
2022-07-25T22:38:02.951Z,259.17
2022-07-25T22:48:07.136Z,260.27
2022-07-25T22:58:11.891Z,247.87
2022-07-25T23:08:15.364Z,252.53
2022-07-25T23:18:21.742Z,258.00
2022-07-25T23:28:25.112Z,237.30
2022-07-25T23:38:29.791Z,236.13
2022-07-25T23:48:33.256Z,233.93
2022-07-25T23:58:37.994Z,239.43
